sensor_id;sensor_type;location;lat;lon;timestamp;P1;durP1;ratioP1;P2;durP2;ratioP2
11681;SDS011;5897;42.640;23.310;2023-06-10T00:01:15;5.90;;;5.00;;
11681;SDS011;5897;42.640;23.310;2023-06-10T00:03:43;6.85;;;4.78;;
11681;SDS011;5897;42.640;23.310;2023-06-10T00:06:09;7.88;;;5.75;;
11681;SDS011;5897;42.640;23.310;2023-06-10T00:08:36;7.30;;;6.18;;
11681;SDS011;5897;42.640;23.310;2023-06-10T00:11:04;6.15;;;5.53;;
11681;SDS011;5897;42.640;23.310;2023-06-10T00:13:31;10.70;;;6.28;;
11681;SDS011;5897;42.640;23.310;2023-06-10T00:15:58;10.90;;;6.22;;
11681;SDS011;5897;42.640;23.310;2023-06-10T00:18:26;10.40;;;6.65;;
11681;SDS011;5897;42.640;23.310;2023-06-10T00:20:56;9.70;;;6.60;;
11681;SDS011;5897;42.640;23.310;2023-06-10T00:23:28;7.47;;;6.75;;
11681;SDS011;5897;42.640;23.310;2023-06-10T00:25:56;9.25;;;6.78;;
11681;SDS011;5897;42.640;23.310;2023-06-10T00:28:23;7.93;;;6.60;;
11681;SDS011;5897;42.640;23.310;2023-06-10T00:30:49;7.85;;;6.10;;
11681;SDS011;5897;42.640;23.310;2023-06-10T00:33:16;7.38;;;6.20;;
11681;SDS011;5897;42.640;23.310;2023-06-10T00:35:44;8.00;;;7.10;;
11681;SDS011;5897;42.640;23.310;2023-06-10T00:38:12;8.00;;;7.15;;
11681;SDS011;5897;42.640;23.310;2023-06-10T00:40:40;9.25;;;7.78;;
11681;SDS011;5897;42.640;23.310;2023-06-10T00:43:07;10.48;;;8.40;;
11681;SDS011;5897;42.640;23.310;2023-06-10T00:45:34;10.55;;;9.50;;
11681;SDS011;5897;42.640;23.310;2023-06-10T00:48:00;14.18;;;9.05;;
11681;SDS011;5897;42.640;23.310;2023-06-10T00:50:28;13.18;;;10.38;;
11681;SDS011;5897;42.640;23.310;2023-06-10T00:52:58;11.23;;;9.90;;
11681;SDS011;5897;42.640;23.310;2023-06-10T00:55:26;14.32;;;10.40;;
11681;SDS011;5897;42.640;23.310;2023-06-10T00:57:52;12.43;;;10.20;;
11681;SDS011;5897;42.640;23.310;2023-06-10T01:00:20;10.93;;;9.93;;
11681;SDS011;5897;42.640;23.310;2023-06-10T01:02:47;13.35;;;10.80;;
11681;SDS011;5897;42.640;23.310;2023-06-10T01:05:14;10.88;;;9.63;;
11681;SDS011;5897;42.640;23.310;2023-06-10T01:07:43;10.98;;;9.88;;
11681;SDS011;5897;42.640;23.310;2023-06-10T01:10:20;11.43;;;10.23;;
11681;SDS011;5897;42.640;23.310;2023-06-10T01:12:52;11.30;;;10.20;;
11681;SDS011;5897;42.640;23.310;2023-06-10T01:15:24;11.38;;;9.77;;
11681;SDS011;5897;42.640;23.310;2023-06-10T01:17:57;14.05;;;10.77;;
11681;SDS011;5897;42.640;23.310;2023-06-10T01:20:27;11.25;;;10.25;;
11681;SDS011;5897;42.640;23.310;2023-06-10T01:22:56;10.90;;;8.90;;
11681;SDS011;5897;42.640;23.310;2023-06-10T01:25:23;10.23;;;9.25;;
11681;SDS011;5897;42.640;23.310;2023-06-10T01:27:54;10.85;;;9.85;;
11681;SDS011;5897;42.640;23.310;2023-06-10T01:30:30;10.25;;;9.27;;
11681;SDS011;5897;42.640;23.310;2023-06-10T01:33:03;9.55;;;8.32;;
11681;SDS011;5897;42.640;23.310;2023-06-10T01:35:35;9.60;;;8.20;;
11681;SDS011;5897;42.640;23.310;2023-06-10T01:38:05;9.75;;;8.07;;
11681;SDS011;5897;42.640;23.310;2023-06-10T01:40:33;11.70;;;8.10;;
11681;SDS011;5897;42.640;23.310;2023-06-10T01:43:00;9.15;;;7.57;;
11681;SDS011;5897;42.640;23.310;2023-06-10T01:45:28;9.10;;;7.20;;
11681;SDS011;5897;42.640;23.310;2023-06-10T01:47:55;8.50;;;7.47;;
11681;SDS011;5897;42.640;23.310;2023-06-10T01:50:21;9.25;;;7.43;;
11681;SDS011;5897;42.640;23.310;2023-06-10T01:52:48;9.63;;;7.07;;
11681;SDS011;5897;42.640;23.310;2023-06-10T01:55:16;10.07;;;7.90;;
11681;SDS011;5897;42.640;23.310;2023-06-10T01:57:43;8.43;;;6.93;;
11681;SDS011;5897;42.640;23.310;2023-06-10T02:00:11;8.13;;;7.32;;
11681;SDS011;5897;42.640;23.310;2023-06-10T02:02:38;11.93;;;7.28;;
11681;SDS011;5897;42.640;23.310;2023-06-10T02:05:05;9.77;;;7.20;;
11681;SDS011;5897;42.640;23.310;2023-06-10T02:07:32;8.07;;;7.28;;
11681;SDS011;5897;42.640;23.310;2023-06-10T02:09:59;8.05;;;7.20;;
11681;SDS011;5897;42.640;23.310;2023-06-10T02:12:27;9.88;;;7.25;;
11681;SDS011;5897;42.640;23.310;2023-06-10T02:14:54;8.13;;;6.55;;
11681;SDS011;5897;42.640;23.310;2023-06-10T02:17:21;8.23;;;7.38;;
11681;SDS011;5897;42.640;23.310;2023-06-10T02:19:48;8.48;;;7.03;;
11681;SDS011;5897;42.640;23.310;2023-06-10T02:22:19;7.78;;;6.63;;
11681;SDS011;5897;42.640;23.310;2023-06-10T02:24:46;8.93;;;6.60;;
11681;SDS011;5897;42.640;23.310;2023-06-10T02:27:14;9.68;;;6.60;;
11681;SDS011;5897;42.640;23.310;2023-06-10T02:29:42;8.77;;;6.25;;
11681;SDS011;5897;42.640;23.310;2023-06-10T02:32:09;7.60;;;6.78;;
11681;SDS011;5897;42.640;23.310;2023-06-10T02:34:36;7.07;;;5.72;;
11681;SDS011;5897;42.640;23.310;2023-06-10T02:37:03;6.75;;;6.00;;
11681;SDS011;5897;42.640;23.310;2023-06-10T02:39:30;6.68;;;5.53;;
11681;SDS011;5897;42.640;23.310;2023-06-10T02:41:57;5.63;;;5.13;;
11681;SDS011;5897;42.640;23.310;2023-06-10T02:44:23;5.20;;;4.68;;
11681;SDS011;5897;42.640;23.310;2023-06-10T02:46:52;5.80;;;5.00;;
11681;SDS011;5897;42.640;23.310;2023-06-10T02:49:18;5.30;;;4.65;;
11681;SDS011;5897;42.640;23.310;2023-06-10T02:51:45;5.85;;;4.68;;
11681;SDS011;5897;42.640;23.310;2023-06-10T02:54:12;5.78;;;5.18;;
11681;SDS011;5897;42.640;23.310;2023-06-10T02:56:39;7.10;;;4.90;;
11681;SDS011;5897;42.640;23.310;2023-06-10T02:59:07;5.55;;;4.68;;
11681;SDS011;5897;42.640;23.310;2023-06-10T03:01:34;5.60;;;4.80;;
11681;SDS011;5897;42.640;23.310;2023-06-10T03:04:03;5.70;;;4.68;;
11681;SDS011;5897;42.640;23.310;2023-06-10T03:06:30;5.20;;;4.70;;
11681;SDS011;5897;42.640;23.310;2023-06-10T03:08:58;7.25;;;4.90;;
11681;SDS011;5897;42.640;23.310;2023-06-10T03:11:25;6.47;;;4.78;;
11681;SDS011;5897;42.640;23.310;2023-06-10T03:13:52;5.75;;;4.70;;
11681;SDS011;5897;42.640;23.310;2023-06-10T03:16:18;5.43;;;4.55;;
11681;SDS011;5897;42.640;23.310;2023-06-10T03:18:45;5.93;;;4.80;;
11681;SDS011;5897;42.640;23.310;2023-06-10T03:21:13;5.53;;;4.57;;
11681;SDS011;5897;42.640;23.310;2023-06-10T03:23:40;5.95;;;4.95;;
11681;SDS011;5897;42.640;23.310;2023-06-10T03:26:07;7.13;;;4.50;;
11681;SDS011;5897;42.640;23.310;2023-06-10T03:28:35;4.68;;;4.18;;
11681;SDS011;5897;42.640;23.310;2023-06-10T03:31:02;4.63;;;4.15;;
11681;SDS011;5897;42.640;23.310;2023-06-10T03:33:28;5.35;;;4.82;;
11681;SDS011;5897;42.640;23.310;2023-06-10T03:35:56;5.50;;;4.50;;
11681;SDS011;5897;42.640;23.310;2023-06-10T03:38:24;4.90;;;4.32;;
11681;SDS011;5897;42.640;23.310;2023-06-10T03:40:51;5.13;;;4.43;;
11681;SDS011;5897;42.640;23.310;2023-06-10T03:43:18;5.57;;;5.03;;
11681;SDS011;5897;42.640;23.310;2023-06-10T03:45:45;6.43;;;5.07;;
11681;SDS011;5897;42.640;23.310;2023-06-10T03:48:13;7.55;;;5.50;;
11681;SDS011;5897;42.640;23.310;2023-06-10T03:50:40;6.60;;;5.55;;
11681;SDS011;5897;42.640;23.310;2023-06-10T03:53:06;6.55;;;5.40;;
11681;SDS011;5897;42.640;23.310;2023-06-10T03:55:34;6.40;;;5.80;;
11681;SDS011;5897;42.640;23.310;2023-06-10T03:58:01;8.55;;;6.10;;
11681;SDS011;5897;42.640;23.310;2023-06-10T04:00:28;7.07;;;5.78;;
11681;SDS011;5897;42.640;23.310;2023-06-10T04:02:55;8.43;;;6.38;;
11681;SDS011;5897;42.640;23.310;2023-06-10T04:05:23;7.60;;;6.80;;
11681;SDS011;5897;42.640;23.310;2023-06-10T04:07:49;7.30;;;6.53;;
11681;SDS011;5897;42.640;23.310;2023-06-10T04:10:16;7.32;;;6.40;;
11681;SDS011;5897;42.640;23.310;2023-06-10T04:12:45;7.22;;;6.53;;
11681;SDS011;5897;42.640;23.310;2023-06-10T04:15:11;8.93;;;7.72;;
11681;SDS011;5897;42.640;23.310;2023-06-10T04:17:38;6.68;;;6.07;;
11681;SDS011;5897;42.640;23.310;2023-06-10T04:20:06;7.97;;;6.97;;
11681;SDS011;5897;42.640;23.310;2023-06-10T04:22:34;7.38;;;6.68;;
11681;SDS011;5897;42.640;23.310;2023-06-10T04:25:01;8.45;;;7.40;;
11681;SDS011;5897;42.640;23.310;2023-06-10T04:27:28;8.30;;;7.50;;
11681;SDS011;5897;42.640;23.310;2023-06-10T04:29:57;8.52;;;7.20;;
11681;SDS011;5897;42.640;23.310;2023-06-10T04:32:23;8.50;;;7.70;;
11681;SDS011;5897;42.640;23.310;2023-06-10T04:34:50;8.38;;;7.60;;
11681;SDS011;5897;42.640;23.310;2023-06-10T04:37:17;7.93;;;7.13;;
11681;SDS011;5897;42.640;23.310;2023-06-10T04:39:45;8.32;;;7.63;;
11681;SDS011;5897;42.640;23.310;2023-06-10T04:42:11;9.82;;;8.35;;
11681;SDS011;5897;42.640;23.310;2023-06-10T04:44:38;8.88;;;8.07;;
11681;SDS011;5897;42.640;23.310;2023-06-10T04:47:07;8.15;;;7.35;;
11681;SDS011;5897;42.640;23.310;2023-06-10T04:49:34;8.43;;;7.63;;
11681;SDS011;5897;42.640;23.310;2023-06-10T04:52:01;8.88;;;7.90;;
11681;SDS011;5897;42.640;23.310;2023-06-10T04:54:30;8.77;;;7.88;;
11681;SDS011;5897;42.640;23.310;2023-06-10T04:56:57;10.10;;;8.88;;
11681;SDS011;5897;42.640;23.310;2023-06-10T04:59:24;9.13;;;8.13;;
11681;SDS011;5897;42.640;23.310;2023-06-10T05:01:51;10.30;;;8.80;;
11681;SDS011;5897;42.640;23.310;2023-06-10T05:04:19;9.93;;;8.88;;
11681;SDS011;5897;42.640;23.310;2023-06-10T05:06:46;9.65;;;8.75;;
11681;SDS011;5897;42.640;23.310;2023-06-10T05:09:13;10.88;;;8.38;;
11681;SDS011;5897;42.640;23.310;2023-06-10T05:11:40;11.15;;;9.35;;
11681;SDS011;5897;42.640;23.310;2023-06-10T05:14:07;10.13;;;9.23;;
11681;SDS011;5897;42.640;23.310;2023-06-10T05:16:34;10.57;;;9.52;;
11681;SDS011;5897;42.640;23.310;2023-06-10T05:19:00;10.40;;;9.40;;
11681;SDS011;5897;42.640;23.310;2023-06-10T05:21:28;10.10;;;9.18;;
11681;SDS011;5897;42.640;23.310;2023-06-10T05:23:55;10.40;;;9.50;;
11681;SDS011;5897;42.640;23.310;2023-06-10T05:26:22;10.20;;;9.18;;
11681;SDS011;5897;42.640;23.310;2023-06-10T05:28:50;11.48;;;10.00;;
11681;SDS011;5897;42.640;23.310;2023-06-10T05:31:17;10.43;;;9.38;;
11681;SDS011;5897;42.640;23.310;2023-06-10T05:33:44;11.70;;;9.85;;
11681;SDS011;5897;42.640;23.310;2023-06-10T05:36:11;12.57;;;9.13;;
11681;SDS011;5897;42.640;23.310;2023-06-10T05:38:39;10.63;;;9.27;;
11681;SDS011;5897;42.640;23.310;2023-06-10T05:41:06;10.50;;;9.27;;
11681;SDS011;5897;42.640;23.310;2023-06-10T05:43:32;11.90;;;9.77;;
11681;SDS011;5897;42.640;23.310;2023-06-10T05:46:00;10.40;;;9.40;;
11681;SDS011;5897;42.640;23.310;2023-06-10T05:48:26;10.98;;;9.25;;
11681;SDS011;5897;42.640;23.310;2023-06-10T05:50:53;10.73;;;9.60;;
11681;SDS011;5897;42.640;23.310;2023-06-10T05:53:20;10.15;;;9.15;;
11681;SDS011;5897;42.640;23.310;2023-06-10T05:55:48;11.88;;;9.25;;
11681;SDS011;5897;42.640;23.310;2023-06-10T05:58:16;10.63;;;9.60;;
11681;SDS011;5897;42.640;23.310;2023-06-10T06:00:43;11.07;;;10.10;;
11681;SDS011;5897;42.640;23.310;2023-06-10T06:03:10;11.40;;;9.10;;
11681;SDS011;5897;42.640;23.310;2023-06-10T06:05:36;10.98;;;9.60;;
11681;SDS011;5897;42.640;23.310;2023-06-10T06:08:03;11.52;;;9.23;;
11681;SDS011;5897;42.640;23.310;2023-06-10T06:10:30;11.00;;;9.20;;
11681;SDS011;5897;42.640;23.310;2023-06-10T06:12:59;10.48;;;9.40;;
11681;SDS011;5897;42.640;23.310;2023-06-10T06:15:27;10.52;;;9.52;;
11681;SDS011;5897;42.640;23.310;2023-06-10T06:17:54;11.88;;;9.00;;
11681;SDS011;5897;42.640;23.310;2023-06-10T06:20:21;11.48;;;9.90;;
11681;SDS011;5897;42.640;23.310;2023-06-10T06:22:49;11.30;;;10.02;;
11681;SDS011;5897;42.640;23.310;2023-06-10T06:25:15;14.55;;;11.27;;
11681;SDS011;5897;42.640;23.310;2023-06-10T06:27:42;11.10;;;10.00;;
11681;SDS011;5897;42.640;23.310;2023-06-10T06:30:11;10.15;;;9.18;;
11681;SDS011;5897;42.640;23.310;2023-06-10T06:32:37;9.20;;;8.30;;
11681;SDS011;5897;42.640;23.310;2023-06-10T06:35:05;9.43;;;8.52;;
11681;SDS011;5897;42.640;23.310;2023-06-10T06:37:33;9.57;;;8.65;;
11681;SDS011;5897;42.640;23.310;2023-06-10T06:40:00;10.80;;;9.77;;
11681;SDS011;5897;42.640;23.310;2023-06-10T06:42:28;12.20;;;9.13;;
11681;SDS011;5897;42.640;23.310;2023-06-10T06:44:55;10.70;;;8.65;;
11681;SDS011;5897;42.640;23.310;2023-06-10T06:47:23;11.02;;;9.68;;
11681;SDS011;5897;42.640;23.310;2023-06-10T06:49:51;10.07;;;8.52;;
11681;SDS011;5897;42.640;23.310;2023-06-10T06:52:18;9.27;;;8.05;;
11681;SDS011;5897;42.640;23.310;2023-06-10T06:54:45;9.70;;;7.97;;
11681;SDS011;5897;42.640;23.310;2023-06-10T06:57:12;11.02;;;8.30;;
11681;SDS011;5897;42.640;23.310;2023-06-10T06:59:39;9.02;;;7.30;;
11681;SDS011;5897;42.640;23.310;2023-06-10T07:02:05;8.93;;;7.22;;
11681;SDS011;5897;42.640;23.310;2023-06-10T07:04:34;10.27;;;7.45;;
11681;SDS011;5897;42.640;23.310;2023-06-10T07:07:00;10.07;;;7.32;;
11681;SDS011;5897;42.640;23.310;2023-06-10T07:09:27;11.13;;;7.85;;
11681;SDS011;5897;42.640;23.310;2023-06-10T07:11:54;9.50;;;7.05;;
11681;SDS011;5897;42.640;23.310;2023-06-10T07:14:21;6.45;;;5.72;;
11681;SDS011;5897;42.640;23.310;2023-06-10T07:16:48;7.72;;;6.18;;
11681;SDS011;5897;42.640;23.310;2023-06-10T07:19:15;11.73;;;6.55;;
11681;SDS011;5897;42.640;23.310;2023-06-10T07:21:43;10.27;;;6.70;;
11681;SDS011;5897;42.640;23.310;2023-06-10T07:24:10;10.38;;;5.80;;
11681;SDS011;5897;42.640;23.310;2023-06-10T07:26:36;10.43;;;6.00;;
11681;SDS011;5897;42.640;23.310;2023-06-10T07:29:03;11.27;;;5.65;;
11681;SDS011;5897;42.640;23.310;2023-06-10T07:31:30;13.38;;;5.88;;
11681;SDS011;5897;42.640;23.310;2023-06-10T07:33:57;7.13;;;5.30;;
11681;SDS011;5897;42.640;23.310;2023-06-10T07:36:23;10.48;;;5.38;;
11681;SDS011;5897;42.640;23.310;2023-06-10T07:38:53;7.30;;;5.10;;
11681;SDS011;5897;42.640;23.310;2023-06-10T07:41:20;15.55;;;5.57;;
11681;SDS011;5897;42.640;23.310;2023-06-10T07:43:50;8.32;;;4.80;;
11681;SDS011;5897;42.640;23.310;2023-06-10T07:46:20;6.95;;;5.30;;
11681;SDS011;5897;42.640;23.310;2023-06-10T07:48:48;10.23;;;5.30;;
11681;SDS011;5897;42.640;23.310;2023-06-10T07:51:15;8.77;;;4.93;;
11681;SDS011;5897;42.640;23.310;2023-06-10T07:53:42;7.45;;;4.57;;
11681;SDS011;5897;42.640;23.310;2023-06-10T07:56:10;9.70;;;4.53;;
11681;SDS011;5897;42.640;23.310;2023-06-10T07:58:37;12.82;;;5.13;;
11681;SDS011;5897;42.640;23.310;2023-06-10T08:01:04;6.47;;;4.53;;
11681;SDS011;5897;42.640;23.310;2023-06-10T08:03:31;6.80;;;4.10;;
11681;SDS011;5897;42.640;23.310;2023-06-10T08:05:58;6.32;;;3.78;;
11681;SDS011;5897;42.640;23.310;2023-06-10T08:08:26;7.05;;;4.47;;
11681;SDS011;5897;42.640;23.310;2023-06-10T08:10:52;6.22;;;3.97;;
11681;SDS011;5897;42.640;23.310;2023-06-10T08:13:21;10.45;;;4.65;;
11681;SDS011;5897;42.640;23.310;2023-06-10T08:15:47;6.13;;;3.92;;
11681;SDS011;5897;42.640;23.310;2023-06-10T08:18:15;4.15;;;3.65;;
11681;SDS011;5897;42.640;23.310;2023-06-10T08:20:42;8.82;;;4.00;;
11681;SDS011;5897;42.640;23.310;2023-06-10T08:23:09;5.40;;;3.90;;
11681;SDS011;5897;42.640;23.310;2023-06-10T08:25:35;7.75;;;3.83;;
11681;SDS011;5897;42.640;23.310;2023-06-10T08:28:02;11.00;;;3.83;;
11681;SDS011;5897;42.640;23.310;2023-06-10T08:30:30;5.13;;;3.70;;
11681;SDS011;5897;42.640;23.310;2023-06-10T08:32:57;5.47;;;3.75;;
11681;SDS011;5897;42.640;23.310;2023-06-10T08:35:24;5.70;;;3.85;;
11681;SDS011;5897;42.640;23.310;2023-06-10T08:37:51;7.82;;;3.58;;
11681;SDS011;5897;42.640;23.310;2023-06-10T08:40:18;6.57;;;3.60;;
11681;SDS011;5897;42.640;23.310;2023-06-10T08:42:45;4.97;;;3.70;;
11681;SDS011;5897;42.640;23.310;2023-06-10T08:45:16;4.90;;;3.08;;
11681;SDS011;5897;42.640;23.310;2023-06-10T08:47:46;4.63;;;2.53;;
11681;SDS011;5897;42.640;23.310;2023-06-10T08:50:16;4.25;;;3.05;;
11681;SDS011;5897;42.640;23.310;2023-06-10T08:52:44;8.15;;;3.35;;
11681;SDS011;5897;42.640;23.310;2023-06-10T08:55:14;4.57;;;3.05;;
11681;SDS011;5897;42.640;23.310;2023-06-10T08:57:44;3.55;;;2.55;;
11681;SDS011;5897;42.640;23.310;2023-06-10T09:00:13;3.20;;;2.30;;
11681;SDS011;5897;42.640;23.310;2023-06-10T09:02:40;3.03;;;2.47;;
11681;SDS011;5897;42.640;23.310;2023-06-10T09:05:09;4.88;;;2.50;;
11681;SDS011;5897;42.640;23.310;2023-06-10T09:07:36;3.67;;;2.60;;
11681;SDS011;5897;42.640;23.310;2023-06-10T09:10:03;2.47;;;2.17;;
11681;SDS011;5897;42.640;23.310;2023-06-10T09:12:32;4.10;;;2.47;;
11681;SDS011;5897;42.640;23.310;2023-06-10T09:15:00;5.10;;;3.00;;
11681;SDS011;5897;42.640;23.310;2023-06-10T09:17:27;6.90;;;3.22;;
11681;SDS011;5897;42.640;23.310;2023-06-10T09:19:54;5.85;;;2.55;;
11681;SDS011;5897;42.640;23.310;2023-06-10T09:22:23;3.83;;;2.60;;
11681;SDS011;5897;42.640;23.310;2023-06-10T09:24:52;6.95;;;2.97;;
11681;SDS011;5897;42.640;23.310;2023-06-10T09:27:29;13.35;;;3.40;;
11681;SDS011;5897;42.640;23.310;2023-06-10T09:29:56;3.97;;;3.00;;
11681;SDS011;5897;42.640;23.310;2023-06-10T09:32:24;4.53;;;3.42;;
11681;SDS011;5897;42.640;23.310;2023-06-10T09:34:51;11.35;;;3.65;;
11681;SDS011;5897;42.640;23.310;2023-06-10T09:37:20;8.38;;;3.70;;
11681;SDS011;5897;42.640;23.310;2023-06-10T09:40:02;5.90;;;3.33;;
11681;SDS011;5897;42.640;23.310;2023-06-10T09:42:32;6.10;;;3.15;;
11681;SDS011;5897;42.640;23.310;2023-06-10T09:45:00;5.85;;;3.00;;
11681;SDS011;5897;42.640;23.310;2023-06-10T09:47:27;5.55;;;3.53;;
11681;SDS011;5897;42.640;23.310;2023-06-10T09:49:54;5.00;;;3.47;;
11681;SDS011;5897;42.640;23.310;2023-06-10T09:52:23;5.28;;;3.00;;
11681;SDS011;5897;42.640;23.310;2023-06-10T09:54:50;3.92;;;3.05;;
11681;SDS011;5897;42.640;23.310;2023-06-10T09:57:18;5.38;;;2.97;;
11681;SDS011;5897;42.640;23.310;2023-06-10T09:59:45;4.28;;;3.25;;
11681;SDS011;5897;42.640;23.310;2023-06-10T10:02:15;6.82;;;2.90;;
11681;SDS011;5897;42.640;23.310;2023-06-10T10:04:42;5.43;;;3.15;;
11681;SDS011;5897;42.640;23.310;2023-06-10T10:07:09;7.07;;;3.00;;
11681;SDS011;5897;42.640;23.310;2023-06-10T10:09:37;3.28;;;2.95;;
11681;SDS011;5897;42.640;23.310;2023-06-10T10:12:05;3.95;;;2.90;;
11681;SDS011;5897;42.640;23.310;2023-06-10T10:14:36;4.10;;;3.30;;
11681;SDS011;5897;42.640;23.310;2023-06-10T10:17:04;3.17;;;2.88;;
11681;SDS011;5897;42.640;23.310;2023-06-10T10:19:36;5.25;;;2.97;;
11681;SDS011;5897;42.640;23.310;2023-06-10T10:22:11;4.03;;;3.20;;
11681;SDS011;5897;42.640;23.310;2023-06-10T10:24:48;10.13;;;2.72;;
11681;SDS011;5897;42.640;23.310;2023-06-10T10:27:17;4.13;;;2.72;;
11681;SDS011;5897;42.640;23.310;2023-06-10T10:29:47;4.68;;;2.63;;
11681;SDS011;5897;42.640;23.310;2023-06-10T10:32:18;4.10;;;3.05;;
11681;SDS011;5897;42.640;23.310;2023-06-10T10:34:53;3.83;;;2.83;;
11681;SDS011;5897;42.640;23.310;2023-06-10T10:37:31;3.80;;;2.80;;
11681;SDS011;5897;42.640;23.310;2023-06-10T10:39:59;3.22;;;2.92;;
11681;SDS011;5897;42.640;23.310;2023-06-10T10:42:27;3.45;;;2.65;;
11681;SDS011;5897;42.640;23.310;2023-06-10T10:44:54;4.85;;;2.85;;
11681;SDS011;5897;42.640;23.310;2023-06-10T10:47:22;4.93;;;3.03;;
11681;SDS011;5897;42.640;23.310;2023-06-10T10:49:54;4.93;;;2.50;;
11681;SDS011;5897;42.640;23.310;2023-06-10T10:52:24;3.88;;;2.45;;
11681;SDS011;5897;42.640;23.310;2023-06-10T10:54:52;4.88;;;2.60;;
11681;SDS011;5897;42.640;23.310;2023-06-10T10:57:22;6.10;;;3.60;;
11681;SDS011;5897;42.640;23.310;2023-06-10T10:59:54;3.00;;;2.70;;
11681;SDS011;5897;42.640;23.310;2023-06-10T11:02:32;3.97;;;2.85;;
11681;SDS011;5897;42.640;23.310;2023-06-10T11:05:08;4.40;;;2.60;;
11681;SDS011;5897;42.640;23.310;2023-06-10T11:07:36;3.70;;;3.10;;
11681;SDS011;5897;42.640;23.310;2023-06-10T11:10:06;3.08;;;2.58;;
11681;SDS011;5897;42.640;23.310;2023-06-10T11:15:25;8.57;;;3.33;;
11681;SDS011;5897;42.640;23.310;2023-06-10T11:18:09;6.45;;;2.78;;
11681;SDS011;5897;42.640;23.310;2023-06-10T11:20:57;4.60;;;2.72;;
11681;SDS011;5897;42.640;23.310;2023-06-10T11:23:25;3.00;;;2.15;;
11681;SDS011;5897;42.640;23.310;2023-06-10T11:26:09;5.32;;;2.38;;
11681;SDS011;5897;42.640;23.310;2023-06-10T11:28:38;3.60;;;2.22;;
11681;SDS011;5897;42.640;23.310;2023-06-10T11:31:05;11.82;;;8.50;;
11681;SDS011;5897;42.640;23.310;2023-06-10T11:33:32;6.00;;;5.35;;
11681;SDS011;5897;42.640;23.310;2023-06-10T11:35:59;5.75;;;2.63;;
11681;SDS011;5897;42.640;23.310;2023-06-10T11:38:25;12.50;;;8.20;;
11681;SDS011;5897;42.640;23.310;2023-06-10T11:40:52;3.47;;;3.08;;
11681;SDS011;5897;42.640;23.310;2023-06-10T11:43:20;4.85;;;2.80;;
11681;SDS011;5897;42.640;23.310;2023-06-10T11:45:53;3.35;;;2.95;;
11681;SDS011;5897;42.640;23.310;2023-06-10T11:48:20;4.68;;;3.13;;
11681;SDS011;5897;42.640;23.310;2023-06-10T11:50:47;4.13;;;3.20;;
11681;SDS011;5897;42.640;23.310;2023-06-10T11:53:14;4.35;;;2.85;;
11681;SDS011;5897;42.640;23.310;2023-06-10T11:55:43;4.03;;;2.50;;
11681;SDS011;5897;42.640;23.310;2023-06-10T11:58:12;6.80;;;3.53;;
11681;SDS011;5897;42.640;23.310;2023-06-10T12:00:43;4.15;;;2.40;;
11681;SDS011;5897;42.640;23.310;2023-06-10T12:03:13;6.30;;;5.53;;
11681;SDS011;5897;42.640;23.310;2023-06-10T12:05:40;5.57;;;3.33;;
11681;SDS011;5897;42.640;23.310;2023-06-10T12:08:10;8.93;;;4.10;;
11681;SDS011;5897;42.640;23.310;2023-06-10T12:10:41;6.05;;;3.13;;
11681;SDS011;5897;42.640;23.310;2023-06-10T12:13:08;11.95;;;5.78;;
11681;SDS011;5897;42.640;23.310;2023-06-10T12:15:35;3.53;;;2.83;;
11681;SDS011;5897;42.640;23.310;2023-06-10T12:18:02;4.57;;;2.65;;
11681;SDS011;5897;42.640;23.310;2023-06-10T12:20:31;5.82;;;2.80;;
11681;SDS011;5897;42.640;23.310;2023-06-10T12:22:59;3.50;;;2.92;;
11681;SDS011;5897;42.640;23.310;2023-06-10T12:25:26;3.83;;;3.10;;
11681;SDS011;5897;42.640;23.310;2023-06-10T12:27:55;10.95;;;3.42;;
11681;SDS011;5897;42.640;23.310;2023-06-10T12:30:24;3.25;;;2.95;;
11681;SDS011;5897;42.640;23.310;2023-06-10T12:32:52;3.85;;;3.33;;
11681;SDS011;5897;42.640;23.310;2023-06-10T12:35:20;4.78;;;3.53;;
11681;SDS011;5897;42.640;23.310;2023-06-10T12:37:57;7.65;;;3.55;;
11681;SDS011;5897;42.640;23.310;2023-06-10T12:40:26;8.07;;;4.13;;
11681;SDS011;5897;42.640;23.310;2023-06-10T12:42:54;3.97;;;3.40;;
11681;SDS011;5897;42.640;23.310;2023-06-10T12:45:26;10.30;;;3.30;;
11681;SDS011;5897;42.640;23.310;2023-06-10T12:48:03;5.45;;;3.10;;
11681;SDS011;5897;42.640;23.310;2023-06-10T12:50:31;5.18;;;3.10;;
11681;SDS011;5897;42.640;23.310;2023-06-10T12:52:59;13.88;;;3.60;;
11681;SDS011;5897;42.640;23.310;2023-06-10T12:55:26;5.00;;;3.08;;
11681;SDS011;5897;42.640;23.310;2023-06-10T12:57:54;3.10;;;2.50;;
11681;SDS011;5897;42.640;23.310;2023-06-10T13:00:21;4.90;;;2.80;;
11681;SDS011;5897;42.640;23.310;2023-06-10T13:02:51;3.38;;;2.72;;
11681;SDS011;5897;42.640;23.310;2023-06-10T13:05:18;3.08;;;2.30;;
11681;SDS011;5897;42.640;23.310;2023-06-10T13:07:45;6.25;;;3.15;;
11681;SDS011;5897;42.640;23.310;2023-06-10T13:10:13;3.90;;;2.92;;
11681;SDS011;5897;42.640;23.310;2023-06-10T13:12:41;4.78;;;2.90;;
11681;SDS011;5897;42.640;23.310;2023-06-10T13:15:08;3.00;;;2.70;;
11681;SDS011;5897;42.640;23.310;2023-06-10T13:17:35;3.05;;;2.67;;
11681;SDS011;5897;42.640;23.310;2023-06-10T13:20:02;3.70;;;2.85;;
11681;SDS011;5897;42.640;23.310;2023-06-10T13:22:30;3.22;;;2.92;;
11681;SDS011;5897;42.640;23.310;2023-06-10T13:24:57;3.03;;;2.50;;
11681;SDS011;5897;42.640;23.310;2023-06-10T13:27:26;6.10;;;2.70;;
11681;SDS011;5897;42.640;23.310;2023-06-10T13:29:53;3.17;;;2.88;;
11681;SDS011;5897;42.640;23.310;2023-06-10T13:32:19;5.88;;;3.13;;
11681;SDS011;5897;42.640;23.310;2023-06-10T13:34:46;4.95;;;3.20;;
11681;SDS011;5897;42.640;23.310;2023-06-10T13:37:14;7.40;;;3.38;;
11681;SDS011;5897;42.640;23.310;2023-06-10T13:39:42;5.30;;;3.20;;
11681;SDS011;5897;42.640;23.310;2023-06-10T13:42:09;4.82;;;3.10;;
11681;SDS011;5897;42.640;23.310;2023-06-10T13:44:37;6.03;;;3.38;;
11681;SDS011;5897;42.640;23.310;2023-06-10T13:47:04;6.93;;;3.50;;
11681;SDS011;5897;42.640;23.310;2023-06-10T13:49:31;4.28;;;3.28;;
11681;SDS011;5897;42.640;23.310;2023-06-10T13:51:58;3.85;;;3.50;;
11681;SDS011;5897;42.640;23.310;2023-06-10T13:54:25;5.90;;;3.38;;
11681;SDS011;5897;42.640;23.310;2023-06-10T13:56:52;4.07;;;3.22;;
11681;SDS011;5897;42.640;23.310;2023-06-10T13:59:19;4.10;;;3.40;;
11681;SDS011;5897;42.640;23.310;2023-06-10T14:01:47;4.00;;;3.60;;
11681;SDS011;5897;42.640;23.310;2023-06-10T14:04:14;6.28;;;3.58;;
11681;SDS011;5897;42.640;23.310;2023-06-10T14:06:41;3.75;;;3.45;;
11681;SDS011;5897;42.640;23.310;2023-06-10T14:09:08;4.05;;;3.65;;
11681;SDS011;5897;42.640;23.310;2023-06-10T14:11:34;4.85;;;3.85;;
11681;SDS011;5897;42.640;23.310;2023-06-10T14:14:01;6.60;;;3.63;;
11681;SDS011;5897;42.640;23.310;2023-06-10T14:16:28;3.90;;;3.55;;
11681;SDS011;5897;42.640;23.310;2023-06-10T14:18:56;3.90;;;3.60;;
11681;SDS011;5897;42.640;23.310;2023-06-10T14:21:23;6.43;;;3.58;;
11681;SDS011;5897;42.640;23.310;2023-06-10T14:23:50;4.47;;;3.25;;
11681;SDS011;5897;42.640;23.310;2023-06-10T14:26:18;5.10;;;3.83;;
11681;SDS011;5897;42.640;23.310;2023-06-10T14:28:46;11.82;;;4.30;;
11681;SDS011;5897;42.640;23.310;2023-06-10T14:31:14;6.80;;;3.42;;
11681;SDS011;5897;42.640;23.310;2023-06-10T14:33:41;9.88;;;4.15;;
11681;SDS011;5897;42.640;23.310;2023-06-10T14:36:10;6.65;;;3.20;;
11681;SDS011;5897;42.640;23.310;2023-06-10T14:38:37;10.02;;;3.90;;
11681;SDS011;5897;42.640;23.310;2023-06-10T14:41:04;5.75;;;3.42;;
11681;SDS011;5897;42.640;23.310;2023-06-10T14:43:31;10.55;;;3.72;;
11681;SDS011;5897;42.640;23.310;2023-06-10T14:45:58;5.22;;;3.75;;
11681;SDS011;5897;42.640;23.310;2023-06-10T14:48:24;4.60;;;3.17;;
11681;SDS011;5897;42.640;23.310;2023-06-10T14:50:51;5.70;;;3.30;;